Aeroporto :
LOGIN :

Iscrizione | Disclaimer

   EN    FR    IT 

 










Sommario :    VFR   VFR Marginale   IFR   IFR Intensivo   IFR Molto Intensivo
Visibilità : 
Base nubi : 
>= 8 km
>= 3000ft
5 / 8 km
1000 / 3000 ft
1500m / 5 km
500 / 1000 ft
800 / 1500m
200 / 500 ft
< 800m
< 200 ft
Simboli :   Temporali  Nebbia  Neve Forte  Precipitazioni Forti  Vento > 20 kt
SIGMETs :   Varie  Temporali  Ghiacco  Turbolenza  Onda orograficha  Ceneri Vulcaniche






- Altitudine del aeroporto : 681 ft
- Codice IATA : LBA


EGNM - Leeds Bradford

ULTIMO METAR :
  • 230220Z 07011KT 010V110 4000 BR SCT003 BKN008 07/07 Q0996

METARs OBSOLETI :
  • 230150Z 07012KT 010V090 3500 BR SCT003 BKN007 07/07 Q0996
  • 230120Z 07010KT 010V100 3000 BR SCT002 BKN004 07/06 Q0996
  • 230050Z 08010KT 010V160 7000 SCT003 BKN005 07/07 Q0996
  • 230020Z 08012KT 010V120 4000 BR SCT002 BKN004 07/07 Q0997
  • 222350Z 09010KT 010V160 4000 BR SCT002 BKN005 07/07 Q0997
  • 222320Z 10010KT 080V160 7000 SCT002 BKN005 07/06 Q0997

TAF AMD TAF EGNM
Valido dal 23 a 00 ore il 24 a 00 ore UTC


230023Z 2300/2324 10008KT 9000 -RA BKN005
TEMPO 2300/2302 4000 BR BKN004
TEMPO 2302/2318 2500 RA BR BKN002
PROB30 2302/2310 0300 FG BKN000
PROB30
TEMPO 2313/2317 1400 RADZ BKN001
TEMPO 2318/2321 SCT015
PROB30 2321/2324 2000 BR
ATIS : +44 113 250 9696 (x2489)



MetMap, La meteo Aeronautica in un colpo d'occhio ! - Copyright ORBIFLY Dicembre 2007 - Disclaimer

ORBIFLY MET'MAP TEAM :

Programmazione e sviluppo : Alexandra Zaïnal
Concezione e sviluppo : Baudouin d'Aumeries
Co-Programmazione e sviluppo : Marc-Olivier Méhu
Supporto tecnico e logistico : Manuel Goepfert
Aiuto per la traduzione : Arnaldo La Scala

Contatto : metmap@orbifly.com




FONTI E CREDITI :

   NOAA